createdAt,value
2022-09-23T00:00:05.690Z,101214.13
2022-09-23T00:05:53.597Z,101213.91
2022-09-23T00:08:20.882Z,101207.19
2022-09-23T00:11:19.568Z,101209.63
2022-09-23T00:13:48.912Z,101213.34
2022-09-23T00:16:19.617Z,101206.50
2022-09-23T00:18:47.227Z,101193.50
2022-09-23T00:21:14.734Z,101202.78
2022-09-23T00:23:42.970Z,101191.19
2022-09-23T00:26:12.862Z,101193.84
2022-09-23T00:28:40.704Z,101189.94
2022-09-23T00:31:11.342Z,101190.59
2022-09-23T00:33:40.638Z,101189.09
2022-09-23T00:36:11.148Z,101187.03
2022-09-23T00:38:39.016Z,101186.91
2022-09-23T00:41:06.554Z,101177.84
2022-09-23T00:43:42.319Z,101177.84
2022-09-23T00:46:12.238Z,101181.91
2022-09-23T00:48:41.625Z,101180.28
2022-09-23T00:51:10.500Z,101175.78
2022-09-23T00:53:38.581Z,101176.22
2022-09-23T00:56:10.242Z,101178.75
2022-09-23T00:58:40.231Z,101180.75
2022-09-23T01:01:07.825Z,101172.75
2022-09-23T01:03:35.129Z,101173.41
2022-09-23T01:06:02.415Z,101170.03
2022-09-23T01:08:29.809Z,101170.72
2022-09-23T01:11:01.126Z,101169.25
2022-09-23T01:14:03.479Z,101175.03
2022-09-23T01:16:34.207Z,101177.56
2022-09-23T01:19:08.464Z,101166.44
2022-09-23T01:21:52.032Z,101167.16
2022-09-23T01:24:43.466Z,101164.13
2022-09-23T01:27:29.506Z,101161.66
2022-09-23T01:30:07.030Z,101161.78
2022-09-23T01:32:52.758Z,101145.22
2022-09-23T01:35:25.811Z,101140.47
2022-09-23T01:37:55.875Z,101138.25
2022-09-23T01:40:32.582Z,101145.44
2022-09-23T01:43:28.302Z,101144.66
2022-09-23T01:45:59.490Z,101152.41
2022-09-23T01:48:32.147Z,101143.34
2022-09-23T01:51:11.150Z,101136.97
2022-09-23T01:53:50.514Z,101142.84
2022-09-23T01:56:27.085Z,101145.63
2022-09-23T01:59:36.379Z,101147.38
2022-09-23T02:02:51.930Z,101153.28
2022-09-23T02:05:26.038Z,101153.97
2022-09-23T02:07:58.088Z,101143.47
2022-09-23T02:10:29.450Z,101144.84
2022-09-23T02:13:05.379Z,101144.19
2022-09-23T02:15:35.762Z,101140.22
2022-09-23T02:18:09.509Z,101139.97
2022-09-23T02:20:39.598Z,101141.75
2022-09-23T02:23:13.148Z,101141.81
2022-09-23T02:25:47.103Z,101137.53
2022-09-23T02:28:34.440Z,101141.28
2022-09-23T02:31:11.989Z,101133.16
2022-09-23T02:34:02.560Z,101129.91
2022-09-23T02:36:38.012Z,101138.13
2022-09-23T02:39:09.039Z,101139.63
2022-09-23T02:42:02.886Z,101137.31
2022-09-23T02:44:32.095Z,101129.78
2022-09-23T02:46:59.603Z,101127.34
2022-09-23T02:49:29.441Z,101118.88
2022-09-23T02:51:58.033Z,101122.34
2022-09-23T02:54:28.288Z,101111.03
2022-09-23T02:56:55.584Z,101121.31
2022-09-23T02:59:23.497Z,101118.41
2022-09-23T03:02:32.659Z,101114.81
2022-09-23T03:05:09.094Z,101118.06
2022-09-23T03:08:13.973Z,101116.59
2022-09-23T03:11:05.617Z,101114.25
2022-09-23T03:13:57.166Z,101107.88
2022-09-23T03:16:34.839Z,101115.19
2022-09-23T03:19:04.962Z,101110.56
2022-09-23T03:21:37.133Z,101106.13
2022-09-23T03:24:06.808Z,101103.22
2022-09-23T03:26:36.186Z,101115.06
2022-09-23T03:29:09.408Z,101111.34
2022-09-23T03:31:37.680Z,101109.38
2022-09-23T03:34:10.517Z,101105.78
2022-09-23T03:36:53.793Z,101110.53
2022-09-23T03:39:40.898Z,101111.47
2022-09-23T03:42:24.571Z,101115.06
2022-09-23T03:44:57.332Z,101117.13
2022-09-23T03:47:29.052Z,101118.66
2022-09-23T03:49:56.828Z,101115.84
2022-09-23T03:52:25.498Z,101121.91
2022-09-23T03:55:07.252Z,101118.88
2022-09-23T03:57:34.460Z,101121.41
2022-09-23T04:00:01.889Z,101111.22
2022-09-23T04:02:39.120Z,101124.78
2022-09-23T04:05:10.649Z,101121.28
2022-09-23T04:07:37.907Z,101120.56
2022-09-23T04:10:06.851Z,101124.97
2022-09-23T04:12:34.420Z,101125.78
2022-09-23T04:15:01.743Z,101124.88
2022-09-23T04:17:28.964Z,101124.44
2022-09-23T04:19:56.159Z,101116.97
2022-09-23T04:22:23.492Z,101116.97
2022-09-23T04:24:51.358Z,101119.63
2022-09-23T04:27:18.533Z,101114.75
2022-09-23T04:29:45.707Z,101113.84
2022-09-23T04:32:13.052Z,101118.75
2022-09-23T04:34:40.284Z,101116.75
2022-09-23T04:37:07.538Z,101112.22
2022-09-23T04:39:34.752Z,101111.66
2022-09-23T04:42:01.942Z,101110.41
2022-09-23T04:44:29.505Z,101108.75
2022-09-23T04:46:56.817Z,101114.91
2022-09-23T04:49:24.347Z,101104.63
2022-09-23T04:51:51.652Z,101107.88
2022-09-23T04:54:19.064Z,101102.97
2022-09-23T04:56:46.362Z,101108.09
2022-09-23T04:59:13.619Z,101111.53
2022-09-23T05:01:41.623Z,101100.41
2022-09-23T05:04:10.995Z,101105.75
2022-09-23T05:06:38.295Z,101098.31
2022-09-23T05:09:07.818Z,101098.69
2022-09-23T05:11:35.327Z,101095.06
2022-09-23T05:14:02.599Z,101089.66
2022-09-23T05:16:29.973Z,101093.72
2022-09-23T05:18:58.016Z,101090.09
2022-09-23T05:21:28.355Z,101089.03
2022-09-23T05:23:58.882Z,101091.47
2022-09-23T05:26:29.073Z,101088.25
2022-09-23T05:28:56.661Z,101073.41
2022-09-23T05:31:26.221Z,101083.41
2022-09-23T05:33:57.328Z,101088.28
2022-09-23T05:36:25.726Z,101101.69
2022-09-23T05:38:53.323Z,101090.41
2022-09-23T05:41:25.288Z,101100.03
2022-09-23T05:44:48.065Z,101091.63
2022-09-23T05:47:13.657Z,101098.41
2022-09-23T05:49:58.689Z,101101.53
2022-09-23T05:52:26.657Z,101107.63
2022-09-23T05:54:53.826Z,101097.16
2022-09-23T05:57:21.522Z,101100.75
2022-09-23T05:59:48.804Z,101097.28
2022-09-23T06:02:16.236Z,101100.66
2022-09-23T06:04:44.156Z,101098.22
2022-09-23T06:07:11.852Z,101103.06
2022-09-23T06:09:39.419Z,101091.84
2022-09-23T06:12:07.132Z,101091.84
2022-09-23T06:14:34.441Z,101090.31
2022-09-23T06:17:01.985Z,101090.78
2022-09-23T06:19:29.152Z,101087.25
2022-09-23T06:21:56.363Z,101093.28
2022-09-23T06:24:32.732Z,101088.59
2022-09-23T06:27:00.984Z,101098.97
2022-09-23T06:29:30.766Z,101103.09
2022-09-23T06:31:59.733Z,101099.09
2022-09-23T06:34:27.371Z,101109.69
2022-09-23T06:36:55.570Z,101103.81
2022-09-23T06:39:22.746Z,101107.88
2022-09-23T06:41:51.055Z,101112.44
2022-09-23T06:44:18.253Z,101101.34
2022-09-23T06:46:45.518Z,101096.03
2022-09-23T06:49:23.773Z,101098.13
2022-09-23T06:51:51.106Z,101094.63
2022-09-23T06:54:18.293Z,101101.97
2022-09-23T06:56:47.740Z,101102.63
2022-09-23T06:59:16.969Z,101104.25
2022-09-23T07:01:45.499Z,101104.63
2022-09-23T07:04:13.074Z,101103.34
2022-09-23T07:06:40.815Z,101108.91
2022-09-23T07:09:08.943Z,101098.22
2022-09-23T07:11:36.235Z,101103.47
2022-09-23T07:14:03.634Z,101101.72
2022-09-23T07:16:32.994Z,101102.31
2022-09-23T07:19:00.361Z,101088.97
2022-09-23T07:21:27.938Z,101097.66
2022-09-23T07:23:58.031Z,101096.63
2022-09-23T07:26:25.479Z,101097.66
2022-09-23T07:28:56.847Z,101095.69
2022-09-23T07:31:36.342Z,101100.22
2022-09-23T07:34:07.607Z,101105.41
2022-09-23T07:36:37.365Z,101105.41
2022-09-23T07:39:05.142Z,101112.63
2022-09-23T07:41:33.382Z,101109.72
2022-09-23T07:44:01.547Z,101108.56
2022-09-23T07:46:31.649Z,101108.41
2022-09-23T07:48:59.246Z,101104.72
2022-09-23T07:51:33.378Z,101109.53
2022-09-23T07:54:03.361Z,101119.41
2022-09-23T07:56:30.914Z,101123.13
2022-09-23T07:59:01.002Z,101126.50
2022-09-23T08:01:29.426Z,101132.44
2022-09-23T08:03:58.221Z,101136.06
2022-09-23T08:06:25.543Z,101132.84
2022-09-23T08:08:53.566Z,101126.91
2022-09-23T08:11:21.114Z,101134.91
2022-09-23T08:13:48.417Z,101133.59
2022-09-23T08:16:15.754Z,101137.78
2022-09-23T08:18:46.634Z,101134.59
2022-09-23T08:21:19.896Z,101144.66
2022-09-23T08:23:47.710Z,101144.09
2022-09-23T08:26:20.916Z,101140.25
2022-09-23T08:28:48.693Z,101143.84
2022-09-23T08:31:16.053Z,101143.03
2022-09-23T08:33:43.650Z,101136.94
2022-09-23T08:36:11.334Z,101138.19
2022-09-23T08:38:38.580Z,101142.47
2022-09-23T08:41:22.838Z,101140.16
2022-09-23T08:43:53.735Z,101138.50
2022-09-23T08:46:28.097Z,101134.78
2022-09-23T08:48:55.939Z,101139.97
2022-09-23T08:51:31.664Z,101131.09
2022-09-23T08:53:59.411Z,101133.91
2022-09-23T08:56:28.823Z,101129.91
2022-09-23T08:59:19.150Z,101126.69
2022-09-23T09:01:48.947Z,101131.13
2022-09-23T09:04:36.120Z,101136.06
2022-09-23T09:07:24.566Z,101121.28
2022-09-23T09:10:16.848Z,101123.22
2022-09-23T09:12:54.414Z,101126.81
2022-09-23T09:15:25.268Z,101121.00
2022-09-23T09:18:09.125Z,101121.22
2022-09-23T09:20:49.919Z,101118.41
2022-09-23T09:23:31.969Z,101112.84
2022-09-23T09:26:01.717Z,101117.97
2022-09-23T09:28:51.202Z,101108.53
2022-09-23T09:31:42.662Z,101115.91
2022-09-23T09:34:40.708Z,101113.09
2022-09-23T09:37:16.015Z,101106.81
2022-09-23T09:39:43.516Z,101104.94
2022-09-23T09:42:20.326Z,101106.19
2022-09-23T09:44:58.573Z,101115.09
2022-09-23T09:47:34.929Z,101114.84
2022-09-23T09:50:21.472Z,101114.75
2022-09-23T09:52:49.034Z,101106.84
2022-09-23T09:55:25.375Z,101105.41
2022-09-23T09:58:01.689Z,101111.81
2022-09-23T10:00:29.168Z,101111.19
2022-09-23T10:03:01.803Z,101111.44
2022-09-23T10:05:34.852Z,101099.91
2022-09-23T10:08:20.762Z,101095.69
2022-09-23T10:11:15.420Z,101090.53
2022-09-23T10:14:01.558Z,101097.72
2022-09-23T10:16:34.224Z,101093.59
2022-09-23T10:19:16.127Z,101097.75
2022-09-23T10:21:43.652Z,101090.06
2022-09-23T10:24:23.573Z,101088.22
2022-09-23T10:26:58.712Z,101086.78
2022-09-23T10:29:30.858Z,101080.97
2022-09-23T10:32:18.600Z,101080.09
2022-09-23T10:34:49.517Z,101073.44
2022-09-23T10:37:30.680Z,101075.28
2022-09-23T10:40:17.327Z,101079.41
2022-09-23T10:43:15.832Z,101073.63
2022-09-23T10:46:09.266Z,101071.22
2022-09-23T10:48:48.963Z,101074.47
2022-09-23T10:51:27.376Z,101068.75
2022-09-23T10:54:09.792Z,101066.63
2022-09-23T10:56:43.442Z,101060.00
2022-09-23T10:59:43.455Z,101060.75
2022-09-23T11:02:53.744Z,101056.50
2022-09-23T11:05:26.757Z,101047.03
2022-09-23T11:08:06.153Z,101041.16
2022-09-23T11:10:48.565Z,101050.66
2022-09-23T11:13:42.762Z,101046.22
2022-09-23T11:17:04.234Z,101045.59
2022-09-23T11:19:57.740Z,101037.78
2022-09-23T11:22:24.820Z,101037.78
2022-09-23T11:25:05.253Z,101039.03
2022-09-23T11:27:54.282Z,101035.25
2022-09-23T11:30:21.509Z,101032.31
2022-09-23T11:33:14.061Z,101037.28
2022-09-23T11:36:21.411Z,101038.91
2022-09-23T11:38:50.107Z,101037.47
2022-09-23T11:41:19.554Z,101027.31
2022-09-23T11:43:52.253Z,101015.41
2022-09-23T11:46:25.605Z,101016.13
2022-09-23T11:49:08.248Z,101020.25
2022-09-23T11:51:45.628Z,101012.22
2022-09-23T11:54:36.231Z,101016.56
2022-09-23T11:57:06.820Z,101007.63
2022-09-23T11:59:49.956Z,101008.75
2022-09-23T12:02:21.238Z,101012.03
2022-09-23T12:04:58.617Z,101010.44
2022-09-23T12:07:40.812Z,101010.16
2022-09-23T12:10:09.291Z,101015.13
2022-09-23T12:12:57.408Z,101014.91
2022-09-23T12:15:37.437Z,101021.16
2022-09-23T12:18:29.042Z,101017.22
2022-09-23T12:21:08.474Z,101022.38
2022-09-23T12:23:59.236Z,101017.19
2022-09-23T12:26:27.648Z,101017.72
2022-09-23T12:29:00.773Z,101022.28
2022-09-23T12:31:33.081Z,101019.09
2022-09-23T12:34:07.722Z,101005.13
2022-09-23T12:36:35.981Z,100999.41
2022-09-23T12:39:18.022Z,100998.56
2022-09-23T12:41:50.712Z,100993.41
2022-09-23T12:44:28.782Z,100989.13
2022-09-23T12:47:14.248Z,100976.75
2022-09-23T12:49:42.850Z,100974.91
2022-09-23T12:52:16.077Z,100977.34
2022-09-23T12:54:45.164Z,100980.56
2022-09-23T12:57:12.993Z,100974.22
2022-09-23T13:00:00.443Z,100967.97
2022-09-23T13:02:31.543Z,100979.84
2022-09-23T13:05:26.870Z,100975.19
2022-09-23T13:08:05.623Z,100965.63
2022-09-23T13:10:38.669Z,100957.56
2022-09-23T13:13:06.368Z,100967.94
2022-09-23T13:15:35.440Z,100963.31
2022-09-23T13:18:21.133Z,100968.22
2022-09-23T13:20:49.937Z,100964.72
2022-09-23T13:23:31.311Z,100959.63
2022-09-23T13:26:01.099Z,100967.13
2022-09-23T13:28:37.054Z,100955.44
2022-09-23T13:31:06.189Z,100941.16
2022-09-23T13:33:53.188Z,100944.44
2022-09-23T13:36:21.150Z,100951.09
2022-09-23T13:38:48.736Z,100950.31
2022-09-23T13:41:16.847Z,100945.28
2022-09-23T13:43:49.775Z,100934.88
2022-09-23T13:46:24.498Z,100935.50
2022-09-23T13:48:56.032Z,100931.47
2022-09-23T13:51:30.215Z,100926.66
2022-09-23T13:53:59.369Z,100916.44
2022-09-23T13:56:29.435Z,100927.03
2022-09-23T13:59:20.643Z,100924.50
2022-09-23T14:01:48.052Z,100937.50
2022-09-23T14:04:25.330Z,100925.28
2022-09-23T14:06:53.871Z,100917.41
2022-09-23T14:09:24.757Z,100925.06
2022-09-23T14:11:52.198Z,100919.75
2022-09-23T14:14:19.665Z,100915.56
2022-09-23T14:16:49.649Z,100912.81
2022-09-23T14:19:18.837Z,100906.38
2022-09-23T14:21:51.297Z,100902.63
2022-09-23T14:24:34.584Z,100898.94
2022-09-23T14:27:15.741Z,100905.38
2022-09-23T14:29:44.932Z,100899.34
2022-09-23T14:32:15.699Z,100889.50
2022-09-23T14:34:44.195Z,100892.88
2022-09-23T14:38:08.460Z,100889.69
2022-09-23T14:40:50.805Z,100880.75
2022-09-23T14:43:24.278Z,100881.38
2022-09-23T14:45:57.367Z,100883.88
2022-09-23T14:48:29.536Z,100877.91
2022-09-23T14:51:01.915Z,100876.31
2022-09-23T14:53:31.388Z,100871.94
2022-09-23T14:56:07.950Z,100872.25
2022-09-23T14:58:52.697Z,100870.34
2022-09-23T15:01:35.590Z,100875.22
2022-09-23T15:04:16.361Z,100868.34
2022-09-23T15:07:14.440Z,100869.16
2022-09-23T15:09:42.297Z,100871.56
2022-09-23T15:12:18.919Z,100870.34
2022-09-23T15:14:52.365Z,100864.72
2022-09-23T15:17:22.707Z,100869.56
2022-09-23T15:19:52.718Z,100860.38
2022-09-23T15:22:21.057Z,100862.00
2022-09-23T15:24:48.561Z,100858.38
2022-09-23T15:27:32.244Z,100851.94
2022-09-23T15:30:19.177Z,100850.22
2022-09-23T15:32:46.924Z,100849.03
2022-09-23T15:35:19.299Z,100849.03
2022-09-23T15:37:48.764Z,100854.28
2022-09-23T15:40:27.544Z,100847.72
2022-09-23T15:42:59.774Z,100850.66
2022-09-23T15:45:36.796Z,100837.44
2022-09-23T15:48:11.264Z,100836.28
2022-09-23T15:50:39.328Z,100841.09
2022-09-23T15:53:07.037Z,100839.09
2022-09-23T15:55:34.210Z,100825.38
2022-09-23T15:58:01.448Z,100822.00
2022-09-23T16:00:28.758Z,100813.84
2022-09-23T16:02:56.450Z,100809.28
2022-09-23T16:05:33.435Z,100801.22
2022-09-23T16:08:03.795Z,100813.00
2022-09-23T16:10:36.063Z,100815.88
2022-09-23T16:13:04.918Z,100813.91
2022-09-23T16:15:32.709Z,100815.94
2022-09-23T16:18:00.569Z,100812.41
2022-09-23T16:20:29.840Z,100817.25
2022-09-23T16:23:00.264Z,100807.97
2022-09-23T16:25:31.583Z,100804.06
2022-09-23T16:27:58.797Z,100808.06
2022-09-23T16:30:27.646Z,100801.16
2022-09-23T16:32:55.731Z,100803.22
2022-09-23T16:35:25.499Z,100807.13
2022-09-23T16:37:53.136Z,100807.81
2022-09-23T16:40:22.281Z,100801.34
2022-09-23T16:42:52.337Z,100811.75
2022-09-23T16:45:23.094Z,100801.44
2022-09-23T16:47:51.848Z,100793.44
2022-09-23T16:50:22.626Z,100798.81
2022-09-23T16:52:56.250Z,100798.03
2022-09-23T16:55:25.762Z,100797.53
2022-09-23T16:57:54.078Z,100794.06
2022-09-23T17:00:40.666Z,100796.59
2022-09-23T17:03:26.646Z,100800.72
2022-09-23T17:05:54.222Z,100795.22
2022-09-23T17:08:21.828Z,100798.97
2022-09-23T17:10:57.079Z,100795.78
2022-09-23T17:13:26.038Z,100797.84
2022-09-23T17:15:53.697Z,100794.59
2022-09-23T17:18:21.681Z,100802.97
2022-09-23T17:20:59.386Z,100797.72
2022-09-23T17:23:27.354Z,100807.97
2022-09-23T17:25:54.818Z,100810.34
2022-09-23T17:28:22.239Z,100808.72
2022-09-23T17:30:59.488Z,100806.38
2022-09-23T17:33:28.300Z,100799.47
2022-09-23T17:35:56.878Z,100800.25
2022-09-23T17:38:28.723Z,100791.88
2022-09-23T17:40:59.039Z,100796.91
2022-09-23T17:43:27.131Z,100790.88
2022-09-23T17:45:57.063Z,100789.53
2022-09-23T17:48:25.557Z,100787.28
2022-09-23T17:51:04.155Z,100794.03
2022-09-23T17:53:32.970Z,100790.34
2022-09-23T17:56:04.130Z,100786.16
2022-09-23T17:58:34.002Z,100790.25
2022-09-23T18:01:01.730Z,100786.16
2022-09-23T18:03:30.619Z,100790.22
2022-09-23T18:06:08.836Z,100790.22
2022-09-23T18:08:36.054Z,100789.91
2022-09-23T18:11:12.060Z,100787.78
2022-09-23T18:13:39.224Z,100782.38
2022-09-23T18:16:06.910Z,100776.88
2022-09-23T18:18:34.214Z,100786.97
2022-09-23T18:21:02.698Z,100788.16
2022-09-23T18:23:29.989Z,100786.19
2022-09-23T18:25:57.197Z,100784.66
2022-09-23T18:28:24.572Z,100788.28
2022-09-23T18:30:56.333Z,100790.91
2022-09-23T18:33:24.258Z,100787.91
2022-09-23T18:35:54.206Z,100789.41
2022-09-23T18:38:21.472Z,100791.09
2022-09-23T18:40:55.858Z,100795.06
2022-09-23T18:43:25.850Z,100791.53
2022-09-23T18:45:59.795Z,100790.09
2022-09-23T18:48:48.563Z,100796.19
2022-09-23T18:51:16.726Z,100799.47
2022-09-23T18:53:46.217Z,100792.19
2022-09-23T18:56:15.845Z,100799.84
2022-09-23T18:58:51.514Z,100793.56
2022-09-23T19:01:20.253Z,100799.97
2022-09-23T19:03:47.644Z,100789.94
2022-09-23T19:06:21.065Z,100802.34
2022-09-23T19:08:53.024Z,100800.66
2022-09-23T19:11:20.915Z,100800.59
2022-09-23T19:13:56.338Z,100799.03
2022-09-23T19:16:24.050Z,100795.75
2022-09-23T19:18:51.794Z,100799.81
2022-09-23T19:21:21.389Z,100791.41
2022-09-23T19:23:53.436Z,100794.84
2022-09-23T19:26:23.417Z,100795.00
2022-09-23T19:28:52.506Z,100794.56
2022-09-23T19:31:23.070Z,100804.22
2022-09-23T19:33:56.469Z,100805.03
2022-09-23T19:36:25.608Z,100805.81
2022-09-23T19:38:54.331Z,100797.84
2022-09-23T19:41:21.615Z,100798.72
2022-09-23T19:43:49.130Z,100803.50
2022-09-23T19:46:16.397Z,100801.97
2022-09-23T19:48:47.121Z,100799.09
2022-09-23T19:51:15.462Z,100795.38
2022-09-23T19:53:43.437Z,100781.03
2022-09-23T19:56:14.273Z,100783.44
2022-09-23T19:58:43.048Z,100787.44
2022-09-23T20:01:11.293Z,100782.84
2022-09-23T20:03:39.811Z,100782.81
2022-09-23T20:06:11.814Z,100788.38
2022-09-23T20:08:40.056Z,100788.84
2022-09-23T20:11:13.820Z,100785.22
2022-09-23T20:13:46.942Z,100788.44
2022-09-23T20:16:20.613Z,100783.69
2022-09-23T20:19:03.991Z,100785.59
2022-09-23T20:21:31.592Z,100779.75
2022-09-23T20:24:04.697Z,100779.81
2022-09-23T20:26:50.827Z,100779.31
2022-09-23T20:29:21.202Z,100779.31
2022-09-23T20:31:56.985Z,100780.06
2022-09-23T20:34:24.521Z,100778.44
2022-09-23T20:36:52.511Z,100780.53
2022-09-23T20:39:20.442Z,100771.69
2022-09-23T20:41:49.336Z,100776.97
2022-09-23T20:44:17.222Z,100773.31
2022-09-23T20:46:48.473Z,100775.00
2022-09-23T20:49:17.288Z,100772.41
2022-09-23T20:51:48.057Z,100771.63
2022-09-23T20:54:18.937Z,100767.78
2022-09-23T20:56:47.007Z,100768.91
2022-09-23T20:59:18.233Z,100771.31
2022-09-23T21:01:47.590Z,100772.59
2022-09-23T21:04:17.838Z,100768.22
2022-09-23T21:06:45.248Z,100769.88
2022-09-23T21:09:12.587Z,100764.78
2022-09-23T21:11:41.911Z,100764.84
2022-09-23T21:14:09.650Z,100756.47
2022-09-23T21:16:40.100Z,100757.28
2022-09-23T21:19:08.226Z,100767.22
2022-09-23T21:21:36.107Z,100760.72
2022-09-23T21:24:31.257Z,100763.50
2022-09-23T21:26:52.039Z,100759.00
2022-09-23T21:29:20.838Z,100751.38
2022-09-23T21:31:49.820Z,100756.66
2022-09-23T21:34:17.591Z,100757.47
2022-09-23T21:36:48.027Z,100766.94
2022-09-23T21:39:16.642Z,100775.41
2022-09-23T21:41:44.177Z,100780.97
2022-09-23T21:44:12.918Z,100781.47
2022-09-23T21:46:40.302Z,100777.53
2022-09-23T21:49:09.497Z,100785.03
2022-09-23T21:51:40.790Z,100776.91
2022-09-23T21:54:15.996Z,100781.56
2022-09-23T21:56:44.194Z,100793.28
2022-09-23T21:59:11.895Z,100785.28
2022-09-23T22:01:53.971Z,100785.22
2022-09-23T22:04:22.411Z,100795.06
2022-09-23T22:06:53.972Z,100789.81
2022-09-23T22:09:21.818Z,100787.50
2022-09-23T22:12:13.986Z,100797.94
2022-09-23T22:14:43.037Z,100794.03
2022-09-23T22:17:12.214Z,100802.84
2022-09-23T22:19:45.931Z,100800.84
2022-09-23T22:22:18.693Z,100795.19
2022-09-23T22:24:49.768Z,100799.38
2022-09-23T22:27:19.765Z,100789.50
2022-09-23T22:30:06.077Z,100795.31
2022-09-23T22:32:40.847Z,100804.28
2022-09-23T22:35:10.481Z,100800.63
2022-09-23T22:37:38.206Z,100798.00
2022-09-23T22:40:08.433Z,100783.13
2022-09-23T22:42:36.486Z,100785.84
2022-09-23T22:45:05.802Z,100786.69
2022-09-23T22:47:37.680Z,100771.09
2022-09-23T22:50:06.217Z,100780.94
2022-09-23T22:52:33.613Z,100779.50
2022-09-23T22:55:01.118Z,100771.16
2022-09-23T22:57:28.398Z,100764.41
2022-09-23T22:59:55.595Z,100763.38
2022-09-23T23:02:23.686Z,100755.28
2022-09-23T23:04:51.107Z,100762.34
2022-09-23T23:07:23.122Z,100766.50
2022-09-23T23:09:50.951Z,100758.88
2022-09-23T23:12:20.159Z,100768.53
2022-09-23T23:14:48.622Z,100763.44
2022-09-23T23:17:15.975Z,100768.78
2022-09-23T23:19:43.308Z,100768.88
2022-09-23T23:22:10.559Z,100766.84
2022-09-23T23:24:37.784Z,100758.97
2022-09-23T23:27:04.992Z,100757.53
2022-09-23T23:29:32.351Z,100755.13
2022-09-23T23:31:59.544Z,100755.81
2022-09-23T23:34:27.184Z,100749.69
2022-09-23T23:36:55.075Z,100752.06
2022-09-23T23:39:24.932Z,100746.72
2022-09-23T23:41:54.928Z,100737.22
2022-09-23T23:44:24.614Z,100742.69
2022-09-23T23:46:52.410Z,100747.47
2022-09-23T23:49:19.855Z,100746.75
2022-09-23T23:51:47.855Z,100748.34
2022-09-23T23:54:15.449Z,100745.34
2022-09-23T23:56:43.249Z,100744.19
2022-09-23T23:59:11.307Z,100750.56
